Gilbert Plains, Canada
Current Conditions -  °F | °C
As of 1:00 PM on Friday 24 Oct 2014 (Local Time) from CYDN Reporting Station
Clear Clear  
Wind Chill: 17°   Ceiling: Unl
Heat Index: 17°   Visibility: 9mi
Dew Point:   Wind: 29mph
Humidity: 39%   Direction: 270°W
Pressure: 29.55"   Gusts: 44mph
Location:  51.13°N, 100.48°W
Report Text: CYDN 241800Z AUTO 27025G38KT 9SM CLR 17/03 A2955 RMK SLP009 DENSITY ALT 1800FT
Loading
Personal Weather Stations






























Interactive Weather Map
Tropical Storm Tracking
New forecast layout! Learn more

10-Day Weather Forecast

Advertisements
Track Severe Weather on mobile